KEVW/EVW METAR and TAF weather

Enter ICAO airport designator
Station Type Date Time Source
KEVW METAR 2019/07/20 04:53 UTC NOAA

KEVW 200453Z AUTO 12004KT 10SM CLR 22/M01 A3012 RMK AO2 SLP084 T02171011


Station Type Date Time Source
KEVW Decoded METAR 2019/07/20 04:53 UTC NOAA

EVANSTON-UINTA COUNTY FIELD, WY, United States (KEVW) 41-16N 111-02W 2177M
Jul 20, 2019 - 12:53 AM EDT / 2019.07.20 0453 UTC
Wind: from the ESE (120 degrees) at 5 MPH (4 KT):0
Visibility: 10 mile(s):0
Sky conditions: clear
Temperature: 71.1 F (21.7 C)
Dew Point: 30.0 F (-1.1 C)
Relative Humidity: 21%
Pressure (altimeter): 30.12 in. Hg (1019 hPa)
ob: KEVW 200453Z AUTO 12004KT 10SM CLR 22/M01 A3012 RMK AO2 SLP084 T02171011
cycle: 5

Station Type Date Time Source
KEVW TAF 2019/07/19 18:42 UTC NOAA

TAF KEVW 191737Z 1918/2018 24015G25KT P6SM SKC
FM200200 33007KT P6SM FEW120 SCT150

Example: see airport list